createdAt,value
2022-08-05T00:00:16.922Z,1.40
2022-08-05T00:02:50.464Z,1.70
2022-08-05T00:06:02.844Z,1.35
2022-08-05T00:08:05.595Z,1.23
2022-08-05T00:10:52.000Z,1.40
2022-08-05T00:13:19.850Z,1.42
2022-08-05T00:15:58.145Z,1.40
2022-08-05T00:18:28.089Z,1.50
2022-08-05T00:20:56.138Z,1.98
2022-08-05T00:23:44.267Z,1.40
2022-08-05T00:26:09.877Z,1.33
2022-08-05T00:28:37.009Z,1.40
2022-08-05T00:31:04.797Z,1.40
2022-08-05T00:34:56.931Z,1.50
2022-08-05T00:37:12.677Z,1.60
2022-08-05T00:39:14.000Z,1.67
2022-08-05T00:41:52.143Z,1.60
2022-08-05T00:44:23.366Z,1.40
2022-08-05T00:47:02.158Z,1.48
2022-08-05T00:49:44.418Z,1.73
2022-08-05T00:52:18.773Z,1.80
2022-08-05T00:54:55.171Z,1.80
2022-08-05T00:57:25.255Z,1.75
2022-08-05T00:59:52.776Z,1.48
2022-08-05T01:02:19.566Z,1.50
2022-08-05T01:04:51.065Z,1.50
2022-08-05T01:07:18.065Z,1.30
2022-08-05T01:09:45.235Z,1.63
2022-08-05T01:12:23.237Z,1.50
2022-08-05T01:14:53.300Z,1.55
2022-08-05T01:17:27.792Z,1.35
2022-08-05T01:20:06.131Z,1.38
2022-08-05T01:22:50.613Z,1.60
2022-08-05T01:25:41.159Z,1.63
2022-08-05T01:28:33.063Z,1.30
2022-08-05T01:31:13.976Z,1.77
2022-08-05T01:34:13.311Z,1.98
2022-08-05T01:37:24.523Z,1.60
2022-08-05T01:39:54.821Z,1.42
2022-08-05T01:42:27.732Z,1.73
2022-08-05T01:44:56.911Z,1.45
2022-08-05T01:47:38.773Z,1.45
2022-08-05T01:50:15.155Z,1.30
2022-08-05T01:52:44.545Z,1.42
2022-08-05T01:55:18.457Z,1.50
2022-08-05T01:58:29.945Z,1.70
2022-08-05T02:00:36.732Z,1.90
2022-08-05T02:03:32.040Z,1.40
2022-08-05T02:06:03.666Z,1.60
2022-08-05T02:08:59.404Z,1.77
2022-08-05T02:11:32.843Z,1.38
2022-08-05T02:14:14.767Z,1.85
2022-08-05T02:16:52.302Z,1.52
2022-08-05T02:19:28.627Z,1.50
2022-08-05T02:22:06.193Z,2.10
2022-08-05T02:24:38.117Z,1.83
2022-08-05T02:27:09.999Z,1.70
2022-08-05T02:29:58.955Z,1.40
2022-08-05T02:32:29.169Z,1.70
2022-08-05T02:35:13.890Z,1.48
2022-08-05T02:37:42.253Z,1.30
2022-08-05T02:40:17.007Z,1.30
2022-08-05T02:42:53.039Z,1.60
2022-08-05T02:45:24.213Z,1.73
2022-08-05T02:48:06.481Z,1.40
2022-08-05T02:50:44.055Z,1.52
2022-08-05T02:53:11.984Z,1.55
2022-08-05T02:55:54.190Z,1.40
2022-08-05T02:58:26.697Z,1.40
2022-08-05T03:00:56.141Z,1.52
2022-08-05T03:03:23.858Z,1.40
2022-08-05T03:06:54.659Z,1.73
2022-08-05T03:08:42.757Z,2.60
2022-08-05T03:11:56.411Z,1.50
2022-08-05T03:14:24.442Z,1.33
2022-08-05T03:16:53.352Z,1.90
2022-08-05T03:19:34.488Z,1.73
2022-08-05T03:22:05.148Z,1.45
2022-08-05T03:24:46.974Z,1.60
2022-08-05T03:27:14.674Z,1.55
2022-08-05T03:29:45.705Z,1.27
2022-08-05T03:32:31.090Z,1.63
2022-08-05T03:34:59.161Z,1.42
2022-08-05T03:37:27.775Z,1.17
2022-08-05T03:40:01.912Z,1.58
2022-08-05T03:42:32.855Z,1.55
2022-08-05T03:45:22.161Z,1.30
2022-08-05T03:47:50.111Z,1.52
2022-08-05T03:50:17.211Z,1.60
2022-08-05T03:55:00.456Z,1.45
2022-08-05T03:56:09.971Z,1.85
2022-08-05T03:58:41.165Z,1.55
2022-08-05T04:01:09.671Z,1.23
2022-08-05T04:03:42.321Z,1.45
2022-08-05T04:06:29.748Z,1.58
2022-08-05T04:08:56.919Z,1.60
2022-08-05T04:11:50.470Z,1.35
2022-08-05T04:14:18.154Z,1.35
2022-08-05T04:16:45.428Z,1.42
2022-08-05T04:19:13.174Z,1.42
2022-08-05T04:22:08.063Z,1.42
2022-08-05T04:24:27.730Z,1.33
2022-08-05T04:26:54.466Z,1.50
2022-08-05T04:29:24.781Z,1.75
2022-08-05T04:31:54.256Z,1.60
2022-08-05T04:34:32.598Z,1.40
2022-08-05T04:37:00.698Z,1.40
2022-08-05T04:39:28.171Z,1.60
2022-08-05T04:41:55.565Z,1.55
2022-08-05T04:44:29.157Z,1.70
2022-08-05T04:46:56.848Z,1.75
2022-08-05T04:49:39.225Z,1.17
2022-08-05T04:52:12.397Z,1.73
2022-08-05T04:54:39.043Z,1.33
2022-08-05T04:57:05.739Z,1.40
2022-08-05T04:59:38.419Z,1.95
2022-08-05T05:02:37.045Z,1.52
2022-08-05T05:04:53.377Z,1.42
2022-08-05T05:07:32.499Z,1.23
2022-08-05T05:10:04.190Z,1.27
2022-08-05T05:12:31.042Z,1.50
2022-08-05T05:14:57.862Z,1.70
2022-08-05T05:17:56.249Z,1.70
2022-08-05T05:20:13.423Z,1.30
2022-08-05T05:22:41.340Z,1.30
2022-08-05T05:25:16.354Z,1.30
2022-08-05T05:27:53.446Z,1.50
2022-08-05T05:30:29.032Z,1.23
2022-08-05T05:33:00.058Z,1.38
2022-08-05T05:35:28.983Z,1.23
2022-08-05T05:38:01.596Z,1.63
2022-08-05T05:40:32.025Z,1.30
2022-08-05T05:42:59.796Z,1.13
2022-08-05T05:45:29.357Z,1.33
2022-08-05T05:48:06.035Z,1.15
2022-08-05T05:50:41.022Z,1.30
2022-08-05T05:53:21.254Z,1.38
2022-08-05T05:55:51.893Z,1.30
2022-08-05T05:58:31.803Z,1.35
2022-08-05T06:01:02.248Z,1.20
2022-08-05T06:04:01.038Z,1.00
2022-08-05T06:06:27.795Z,1.00
2022-08-05T06:08:57.771Z,1.25
2022-08-05T06:11:24.543Z,1.35
2022-08-05T06:13:54.104Z,1.10
2022-08-05T06:16:31.310Z,1.13
2022-08-05T06:19:01.740Z,1.08
2022-08-05T06:21:35.875Z,1.20
2022-08-05T06:24:07.819Z,1.20
2022-08-05T06:26:51.027Z,1.23
2022-08-05T06:29:44.272Z,1.00
2022-08-05T06:32:25.128Z,1.15
2022-08-05T06:34:56.544Z,1.67
2022-08-05T06:37:56.013Z,1.25
2022-08-05T06:40:12.045Z,1.10
2022-08-05T06:42:39.748Z,1.02
2022-08-05T06:45:08.563Z,1.30
2022-08-05T06:48:47.377Z,1.20
2022-08-05T06:50:22.663Z,1.20
2022-08-05T06:52:58.656Z,1.05
2022-08-05T06:55:36.154Z,1.33
2022-08-05T06:58:29.657Z,1.10
2022-08-05T07:00:50.849Z,1.00
2022-08-05T07:03:18.488Z,1.10
2022-08-05T07:05:46.569Z,0.90
2022-08-05T07:08:13.755Z,1.10
2022-08-05T07:10:53.107Z,1.10
2022-08-05T07:13:58.014Z,1.00
2022-08-05T07:17:56.658Z,1.10
2022-08-05T07:20:16.838Z,1.10
2022-08-05T07:22:22.404Z,1.13
2022-08-05T07:24:56.625Z,1.10
2022-08-05T07:27:27.292Z,1.20
2022-08-05T07:30:28.013Z,1.00
2022-08-05T07:32:53.403Z,1.10
2022-08-05T07:36:04.000Z,1.08
2022-08-05T07:38:07.357Z,1.20
2022-08-05T07:40:39.362Z,1.05
2022-08-05T07:43:20.435Z,1.05
2022-08-05T07:45:57.853Z,1.10
2022-08-05T07:49:01.586Z,1.30
2022-08-05T07:51:23.773Z,0.82
2022-08-05T07:54:02.761Z,1.10
2022-08-05T07:56:59.931Z,1.23
2022-08-05T07:59:16.591Z,1.40
2022-08-05T08:01:52.343Z,1.00
2022-08-05T08:04:37.878Z,1.00
2022-08-05T08:07:07.090Z,1.48
2022-08-05T08:09:34.769Z,1.40
2022-08-05T08:12:09.124Z,1.00
2022-08-05T08:14:46.825Z,1.02
2022-08-05T08:17:15.988Z,1.38
2022-08-05T08:20:42.704Z,1.60
2022-08-05T08:22:32.300Z,1.38
2022-08-05T08:25:03.449Z,1.17
2022-08-05T08:27:39.854Z,1.10
2022-08-05T08:30:29.766Z,1.38
2022-08-05T08:33:02.647Z,1.52
2022-08-05T08:35:35.125Z,1.23
2022-08-05T08:38:16.229Z,1.30
2022-08-05T08:40:45.697Z,1.33
2022-08-05T08:45:16.570Z,1.50
2022-08-05T08:46:10.029Z,1.27
2022-08-05T08:49:06.213Z,1.40
2022-08-05T08:52:03.596Z,1.10
2022-08-05T08:54:27.325Z,1.67
2022-08-05T08:56:56.461Z,1.42
2022-08-05T08:59:27.747Z,2.00
2022-08-05T09:02:01.378Z,1.55
2022-08-05T09:04:30.630Z,1.52
2022-08-05T09:06:58.381Z,1.65
2022-08-05T09:09:26.079Z,1.85
2022-08-05T09:12:19.882Z,1.88
2022-08-05T09:14:58.725Z,1.65
2022-08-05T09:17:43.073Z,1.80
2022-08-05T09:20:36.149Z,1.73
2022-08-05T09:23:05.054Z,1.70
2022-08-05T09:26:03.413Z,1.60
2022-08-05T09:28:24.266Z,1.45
2022-08-05T09:31:22.707Z,1.90
2022-08-05T09:33:53.683Z,1.77
2022-08-05T09:36:20.574Z,1.70
2022-08-05T09:38:57.512Z,1.50
2022-08-05T09:41:25.010Z,1.70
2022-08-05T09:43:53.133Z,1.60
2022-08-05T09:46:28.600Z,1.60
2022-08-05T09:49:08.094Z,1.95
2022-08-05T09:51:43.861Z,1.48
2022-08-05T09:54:16.062Z,1.38
2022-08-05T09:56:52.242Z,1.90
2022-08-05T09:59:24.346Z,1.77
2022-08-05T10:01:55.493Z,1.60
2022-08-05T10:04:35.791Z,1.40
2022-08-05T10:07:19.497Z,1.60
2022-08-05T10:10:04.075Z,1.52
2022-08-05T10:12:50.807Z,1.35
2022-08-05T10:15:36.819Z,1.73
2022-08-05T10:18:12.749Z,1.38
2022-08-05T10:20:42.613Z,1.60
2022-08-05T10:23:34.706Z,1.17
2022-08-05T10:26:13.928Z,1.40
2022-08-05T10:28:42.473Z,1.27
2022-08-05T10:32:54.221Z,1.90
2022-08-05T10:33:58.252Z,1.23
2022-08-05T10:36:26.024Z,1.58
2022-08-05T10:38:59.267Z,1.73
2022-08-05T10:41:44.896Z,1.63
2022-08-05T10:44:17.044Z,1.35
2022-08-05T10:46:50.679Z,1.58
2022-08-05T10:49:27.080Z,1.50
2022-08-05T10:52:03.323Z,1.48
2022-08-05T10:55:01.775Z,1.30
2022-08-05T10:57:29.420Z,1.10
2022-08-05T11:00:20.872Z,1.40
2022-08-05T11:03:25.259Z,1.27
2022-08-05T11:06:15.250Z,1.48
2022-08-05T11:09:13.175Z,1.95
2022-08-05T11:11:52.659Z,1.17
2022-08-05T11:14:49.341Z,1.20
2022-08-05T11:17:57.809Z,1.80
2022-08-05T11:20:31.254Z,1.27
2022-08-05T11:23:01.988Z,1.20
2022-08-05T11:26:04.816Z,1.45
2022-08-05T11:28:30.544Z,2.22
2022-08-05T11:31:06.434Z,1.40
2022-08-05T11:33:46.260Z,1.25
2022-08-05T11:36:14.701Z,1.58
2022-08-05T11:38:45.432Z,1.25
2022-08-05T11:41:58.304Z,1.77
2022-08-05T11:44:12.709Z,1.30
2022-08-05T11:47:13.986Z,1.30
2022-08-05T11:49:49.813Z,1.40
2022-08-05T11:52:28.988Z,1.80
2022-08-05T11:54:58.461Z,2.03
2022-08-05T11:58:07.987Z,1.40
2022-08-05T12:00:31.602Z,1.23
2022-08-05T12:02:58.407Z,1.75
2022-08-05T12:05:36.125Z,1.38
2022-08-05T12:08:09.883Z,1.50
2022-08-05T12:10:45.280Z,1.13
2022-08-05T12:13:16.684Z,1.38
2022-08-05T12:15:45.184Z,1.20
2022-08-05T12:18:32.354Z,1.00
2022-08-05T12:21:29.922Z,1.08
2022-08-05T12:24:08.810Z,1.50
2022-08-05T12:26:38.554Z,1.10
2022-08-05T12:29:09.798Z,1.50
2022-08-05T12:31:47.639Z,1.08
2022-08-05T12:34:23.496Z,1.15
2022-08-05T12:36:53.296Z,1.27
2022-08-05T12:39:20.629Z,1.10
2022-08-05T12:41:47.338Z,1.10
2022-08-05T12:44:28.661Z,1.42
2022-08-05T12:47:01.746Z,1.30
2022-08-05T12:50:03.389Z,1.30
2022-08-05T12:52:32.363Z,1.10
2022-08-05T12:55:17.856Z,1.20
2022-08-05T12:58:51.431Z,1.02
2022-08-05T13:02:01.666Z,1.00
2022-08-05T13:03:32.367Z,1.33
2022-08-05T13:06:00.905Z,1.20
2022-08-05T13:08:29.853Z,1.25
2022-08-05T13:11:02.528Z,1.60
2022-08-05T13:14:05.547Z,1.20
2022-08-05T13:16:19.993Z,1.17
2022-08-05T13:18:57.760Z,1.13
2022-08-05T13:21:27.685Z,1.30
2022-08-05T13:23:55.482Z,1.20
2022-08-05T13:26:29.993Z,1.00
2022-08-05T13:28:57.508Z,1.20
2022-08-05T13:31:33.706Z,1.33
2022-08-05T13:34:23.836Z,1.00
2022-08-05T13:36:53.882Z,1.20
2022-08-05T13:39:24.487Z,1.35
2022-08-05T13:42:14.736Z,1.27
2022-08-05T13:44:46.390Z,1.15
2022-08-05T13:47:35.860Z,1.40
2022-08-05T13:50:04.535Z,1.33
2022-08-05T13:52:35.644Z,1.20
2022-08-05T13:55:07.291Z,1.42
2022-08-05T13:57:48.630Z,1.17
2022-08-05T14:00:19.071Z,1.10
2022-08-05T14:02:54.111Z,1.17
2022-08-05T14:05:29.506Z,1.38
2022-08-05T14:08:11.120Z,1.38
2022-08-05T14:10:48.876Z,1.10
2022-08-05T14:13:15.984Z,1.80
2022-08-05T14:16:07.758Z,1.35
2022-08-05T14:18:29.645Z,1.27
2022-08-05T14:20:56.703Z,1.30
2022-08-05T14:23:25.986Z,1.45
2022-08-05T14:25:58.941Z,1.40
2022-08-05T14:28:30.274Z,1.60
2022-08-05T14:30:58.379Z,1.30
2022-08-05T14:33:25.492Z,1.55
2022-08-05T14:35:54.553Z,1.17
2022-08-05T14:38:32.191Z,1.48
2022-08-05T14:41:07.513Z,1.55
2022-08-05T14:43:57.484Z,1.10
2022-08-05T14:46:28.675Z,1.38
2022-08-05T14:48:57.911Z,1.50
2022-08-05T14:51:27.639Z,1.23
2022-08-05T14:54:26.619Z,1.30
2022-08-05T14:56:46.897Z,1.42
2022-08-05T14:59:14.590Z,1.20
2022-08-05T15:01:49.118Z,1.30
2022-08-05T15:04:17.529Z,1.20
2022-08-05T15:06:49.149Z,1.25
2022-08-05T15:09:51.865Z,1.30
2022-08-05T15:12:16.595Z,1.10
2022-08-05T15:14:50.064Z,1.30
2022-08-05T15:17:45.602Z,1.30
2022-08-05T15:20:09.793Z,1.67
2022-08-05T15:22:44.708Z,1.23
2022-08-05T15:25:13.938Z,1.30
2022-08-05T15:27:43.046Z,1.40
2022-08-05T15:30:18.817Z,1.40
2022-08-05T15:32:46.906Z,1.40
2022-08-05T15:35:14.898Z,1.48
2022-08-05T15:38:33.410Z,0.93
2022-08-05T15:41:03.180Z,1.25
2022-08-05T15:43:19.652Z,1.20
2022-08-05T15:45:48.063Z,1.17
2022-08-05T15:48:28.229Z,1.00
2022-08-05T15:50:54.967Z,1.15
2022-08-05T15:53:23.103Z,1.20
2022-08-05T15:56:04.302Z,1.20
2022-08-05T15:58:36.888Z,1.20
2022-08-05T16:01:17.375Z,1.33
2022-08-05T16:03:48.565Z,1.30
2022-08-05T16:06:19.909Z,1.67
2022-08-05T16:08:50.855Z,2.00
2022-08-05T16:11:18.452Z,1.40
2022-08-05T16:13:48.384Z,1.20
2022-08-05T16:16:15.905Z,1.40
2022-08-05T16:18:52.662Z,1.20
2022-08-05T16:21:20.724Z,1.20
2022-08-05T16:24:07.738Z,1.23
2022-08-05T16:26:56.730Z,1.55
2022-08-05T16:29:24.516Z,1.45
2022-08-05T16:31:56.645Z,1.50
2022-08-05T16:34:25.403Z,2.22
2022-08-05T16:36:53.352Z,1.20
2022-08-05T16:39:20.929Z,1.13
2022-08-05T16:42:14.115Z,1.20
2022-08-05T16:44:34.718Z,1.10
2022-08-05T16:47:04.832Z,1.02
2022-08-05T16:49:31.934Z,1.30
2022-08-05T16:51:59.065Z,1.50
2022-08-05T16:54:31.891Z,1.08
2022-08-05T16:57:00.168Z,1.33
2022-08-05T16:59:30.607Z,1.33
2022-08-05T17:01:58.067Z,1.40
2022-08-05T17:04:27.750Z,1.27
2022-08-05T17:06:59.916Z,1.23
2022-08-05T17:09:28.242Z,1.80
2022-08-05T17:11:59.758Z,2.33
2022-08-05T17:14:36.732Z,1.52
2022-08-05T17:17:06.406Z,1.30
2022-08-05T17:19:36.641Z,1.60
2022-08-05T17:22:03.865Z,1.83
2022-08-05T17:24:38.635Z,1.23
2022-08-05T17:27:10.669Z,1.30
2022-08-05T17:29:40.868Z,1.65
2022-08-05T17:32:17.311Z,1.58
2022-08-05T17:34:47.580Z,1.33
2022-08-05T17:37:40.617Z,1.25
2022-08-05T17:40:02.194Z,1.27
2022-08-05T17:42:32.854Z,1.58
2022-08-05T17:45:10.086Z,1.58
2022-08-05T17:47:53.391Z,1.45
2022-08-05T17:50:28.545Z,1.33
2022-08-05T17:52:58.898Z,1.65
2022-08-05T17:55:27.368Z,1.42
2022-08-05T17:58:02.163Z,1.42
2022-08-05T18:00:29.814Z,1.58
2022-08-05T18:02:57.229Z,2.70
2022-08-05T18:05:27.975Z,1.50
2022-08-05T18:07:55.340Z,1.83
2022-08-05T18:10:23.985Z,1.50
2022-08-05T18:12:51.170Z,1.95
2022-08-05T18:15:18.293Z,1.80
2022-08-05T18:18:01.415Z,1.77
2022-08-05T18:20:31.969Z,1.92
2022-08-05T18:23:09.280Z,1.73
2022-08-05T18:25:45.099Z,1.50
2022-08-05T18:28:16.157Z,1.70
2022-08-05T18:30:45.132Z,1.70
2022-08-05T18:33:13.502Z,1.83
2022-08-05T18:36:01.104Z,1.42
2022-08-05T18:38:28.393Z,1.65
2022-08-05T18:41:55.808Z,1.58
2022-08-05T18:43:42.751Z,1.45
2022-08-05T18:46:15.478Z,1.60
2022-08-05T18:48:46.430Z,1.50
2022-08-05T18:52:06.152Z,1.50
2022-08-05T18:54:20.668Z,1.60
2022-08-05T18:56:51.159Z,1.60
2022-08-05T18:59:43.895Z,1.75
2022-08-05T19:02:26.847Z,1.80
2022-08-05T19:05:02.431Z,1.48
2022-08-05T19:07:45.601Z,1.40
2022-08-05T19:10:14.019Z,1.45
2022-08-05T19:12:40.672Z,1.83
2022-08-05T19:15:25.349Z,1.55
2022-08-05T19:18:08.355Z,1.85
2022-08-05T19:20:37.242Z,1.63
2022-08-05T19:23:08.547Z,1.98
2022-08-05T19:26:02.136Z,1.85
2022-08-05T19:28:30.745Z,2.88
2022-08-05T19:30:57.618Z,2.88
2022-08-05T19:33:35.590Z,3.40
2022-08-05T19:36:07.222Z,2.95
2022-08-05T19:38:36.669Z,2.83
2022-08-05T19:41:06.805Z,1.30
2022-08-05T19:44:05.912Z,1.45
2022-08-05T19:46:29.384Z,1.70
2022-08-05T19:48:57.840Z,1.80
2022-08-05T19:52:05.666Z,2.03
2022-08-05T19:54:26.777Z,2.17
2022-08-05T19:57:02.321Z,2.45
2022-08-05T19:59:56.057Z,2.53
2022-08-05T20:02:20.497Z,2.08
2022-08-05T20:04:48.350Z,2.22
2022-08-05T20:07:15.704Z,1.95
2022-08-05T20:10:11.493Z,2.33
2022-08-05T20:12:47.833Z,2.30
2022-08-05T20:15:47.775Z,2.10
2022-08-05T20:18:10.807Z,1.85
2022-08-05T20:20:55.258Z,1.90
2022-08-05T20:23:22.858Z,2.10
2022-08-05T20:25:52.282Z,1.77
2022-08-05T20:28:20.640Z,1.90
2022-08-05T20:30:49.551Z,1.67
2022-08-05T20:33:16.317Z,1.90
2022-08-05T20:35:45.521Z,1.63
2022-08-05T20:38:14.419Z,1.60
2022-08-05T20:40:50.511Z,1.60
2022-08-05T20:43:57.669Z,2.05
2022-08-05T20:46:06.750Z,1.30
2022-08-05T20:48:36.990Z,1.52
2022-08-05T20:51:08.257Z,1.50
2022-08-05T20:53:37.169Z,1.33
2022-08-05T20:56:09.692Z,1.20
2022-08-05T20:58:37.188Z,1.52
2022-08-05T21:01:04.531Z,1.30
2022-08-05T21:03:34.743Z,1.48
2022-08-05T21:06:01.989Z,1.25
2022-08-05T21:08:41.845Z,1.55
2022-08-05T21:11:12.557Z,1.45
2022-08-05T21:13:56.035Z,2.05
2022-08-05T21:16:27.611Z,2.08
2022-08-05T21:18:57.135Z,2.42
2022-08-05T21:21:44.006Z,2.00
2022-08-05T21:24:12.725Z,1.90
2022-08-05T21:26:40.199Z,2.33
2022-08-05T21:29:10.137Z,2.03
2022-08-05T21:31:41.373Z,1.92
2022-08-05T21:34:10.619Z,2.15
2022-08-05T21:36:38.244Z,1.80
2022-08-05T21:39:05.476Z,2.17
2022-08-05T21:41:35.474Z,1.65
2022-08-05T21:44:04.247Z,1.90
2022-08-05T21:46:34.624Z,1.65
2022-08-05T21:49:02.357Z,1.67
2022-08-05T21:52:21.710Z,1.70
2022-08-05T21:54:30.672Z,1.90
2022-08-05T21:57:28.407Z,1.50
2022-08-05T22:00:03.066Z,1.35
2022-08-05T22:02:32.160Z,1.10
2022-08-05T22:04:58.896Z,1.17
2022-08-05T22:07:39.773Z,1.00
2022-08-05T22:10:13.557Z,1.20
2022-08-05T22:12:44.999Z,2.10
2022-08-05T22:15:56.431Z,1.15
2022-08-05T22:18:05.945Z,1.30
2022-08-05T22:20:32.814Z,1.15
2022-08-05T22:23:21.362Z,1.13
2022-08-05T22:26:10.334Z,1.27
2022-08-05T22:28:38.674Z,1.10
2022-08-05T22:31:06.062Z,1.00
2022-08-05T22:33:58.636Z,1.15
2022-08-05T22:36:24.130Z,1.20
2022-08-05T22:38:51.437Z,1.30
2022-08-05T22:41:26.453Z,1.60
2022-08-05T22:44:08.909Z,1.10
2022-08-05T22:46:39.957Z,1.25
2022-08-05T22:49:23.317Z,1.58
2022-08-05T22:52:04.579Z,1.10
2022-08-05T22:54:35.502Z,1.58
2022-08-05T22:57:03.569Z,1.27
2022-08-05T22:59:44.008Z,1.30
2022-08-05T23:02:16.758Z,0.95
2022-08-05T23:04:51.558Z,1.08
2022-08-05T23:07:22.009Z,1.33
2022-08-05T23:09:57.470Z,1.30
2022-08-05T23:12:32.687Z,1.60
2022-08-05T23:15:04.004Z,1.58
2022-08-05T23:17:59.754Z,1.27
2022-08-05T23:20:23.620Z,1.30
2022-08-05T23:22:55.855Z,1.20
2022-08-05T23:25:51.215Z,1.63
2022-08-05T23:28:10.888Z,1.77
2022-08-05T23:30:40.350Z,1.58
2022-08-05T23:33:22.355Z,1.70
2022-08-05T23:35:56.021Z,1.40
2022-08-05T23:38:23.393Z,1.23
2022-08-05T23:40:52.843Z,0.90
2022-08-05T23:43:25.731Z,1.00
2022-08-05T23:46:05.252Z,1.48
2022-08-05T23:48:59.626Z,1.08
2022-08-05T23:51:54.032Z,1.42
2022-08-05T23:54:36.513Z,1.17
2022-08-05T23:57:06.093Z,1.00
